createdAt,value
2018-06-03T00:00:08.684Z,81.71
2018-06-03T00:01:08.682Z,82.29
2018-06-03T00:02:08.695Z,82.09
2018-06-03T00:03:08.698Z,82.09
2018-06-03T00:04:08.711Z,82.19
2018-06-03T00:05:08.718Z,82.67
2018-06-03T00:06:08.721Z,83.69
2018-06-03T00:07:08.729Z,83.20
2018-06-03T00:08:08.736Z,83.40
2018-06-03T00:09:08.752Z,83.97
2018-06-03T00:10:08.764Z,84.17
2018-06-03T00:11:08.762Z,84.17
2018-06-03T00:12:08.769Z,84.55
2018-06-03T00:13:08.776Z,84.36
2018-06-03T00:14:08.791Z,84.74
2018-06-03T00:15:08.792Z,84.74
2018-06-03T00:16:08.798Z,84.45
2018-06-03T00:17:08.807Z,84.64
2018-06-03T00:18:08.811Z,84.36
2018-06-03T00:19:08.820Z,84.36
2018-06-03T00:20:08.832Z,84.74
2018-06-03T00:21:08.833Z,84.55
2018-06-03T00:22:08.841Z,85.57
2018-06-03T00:23:08.857Z,85.66
2018-06-03T00:24:08.858Z,85.47
2018-06-03T00:25:08.862Z,85.75
2018-06-03T00:26:08.929Z,85.37
2018-06-03T00:27:08.878Z,85.28
2018-06-03T00:28:08.884Z,85.37
2018-06-03T00:29:08.893Z,84.51
2018-06-03T00:30:08.899Z,84.80
2018-06-03T00:31:08.911Z,85.37
2018-06-03T00:32:08.923Z,84.41
2018-06-03T00:33:08.926Z,84.60
2018-06-03T00:34:08.951Z,84.94
2018-06-03T00:35:08.937Z,84.80
2018-06-03T00:36:08.944Z,84.41
2018-06-03T00:37:08.955Z,84.60
2018-06-03T00:38:08.955Z,84.94
2018-06-03T00:39:08.963Z,84.51
2018-06-03T00:40:08.974Z,84.80
2018-06-03T00:41:08.982Z,85.18
2018-06-03T00:42:08.987Z,85.03
2018-06-03T00:43:08.993Z,83.78
2018-06-03T00:44:09.015Z,83.59
2018-06-03T00:45:09.008Z,84.03
2018-06-03T00:46:09.017Z,84.07
2018-06-03T00:47:09.028Z,83.49
2018-06-03T00:48:09.030Z,83.97
2018-06-03T00:49:09.037Z,83.59
2018-06-03T00:50:09.047Z,83.78
2018-06-03T00:51:09.049Z,83.20
2018-06-03T00:52:09.064Z,83.11
2018-06-03T00:53:09.071Z,83.49
2018-06-03T00:54:09.076Z,82.92
2018-06-03T00:55:09.093Z,83.54
2018-06-03T00:56:09.090Z,83.93
2018-06-03T00:57:09.103Z,84.51
2018-06-03T00:58:09.108Z,84.31
2018-06-03T00:59:09.109Z,83.54
2018-06-03T01:00:09.114Z,83.30
2018-06-03T01:01:09.128Z,83.01
2018-06-03T01:02:09.136Z,82.34
2018-06-03T01:03:09.134Z,83.64
2018-06-03T01:04:09.144Z,83.59
2018-06-03T01:05:09.150Z,82.92
2018-06-03T01:06:09.156Z,82.68
2018-06-03T01:07:09.165Z,83.07
2018-06-03T01:08:09.176Z,83.64
2018-06-03T01:09:09.179Z,84.03
2018-06-03T01:10:09.190Z,84.31
2018-06-03T01:11:09.192Z,84.70
2018-06-03T01:12:09.205Z,84.03
2018-06-03T01:13:09.215Z,84.41
2018-06-03T01:14:09.213Z,85.42
2018-06-03T01:15:09.237Z,84.60
2018-06-03T01:16:09.229Z,84.31
2018-06-03T01:17:09.239Z,83.26
2018-06-03T01:18:09.244Z,83.84
2018-06-03T01:19:09.255Z,83.54
2018-06-03T01:20:09.255Z,83.16
2018-06-03T01:21:09.262Z,83.45
2018-06-03T01:22:09.272Z,83.26
2018-06-03T01:23:09.284Z,84.75
2018-06-03T01:24:09.284Z,84.03
2018-06-03T01:25:09.296Z,84.80
2018-06-03T01:26:09.305Z,84.70
2018-06-03T01:27:09.307Z,84.70
2018-06-03T01:28:09.322Z,84.85
2018-06-03T01:29:09.321Z,84.03
2018-06-03T01:30:09.324Z,83.54
2018-06-03T01:31:09.331Z,84.03
2018-06-03T01:32:09.344Z,83.93
2018-06-03T01:33:09.349Z,83.80
2018-06-03T01:34:09.354Z,84.60
2018-06-03T01:35:09.359Z,83.45
2018-06-03T01:36:09.371Z,83.36
2018-06-03T01:37:09.378Z,83.36
2018-06-03T01:38:09.380Z,82.20
2018-06-03T01:39:09.392Z,82.20
2018-06-03T01:40:09.402Z,82.01
2018-06-03T01:41:09.406Z,82.97
2018-06-03T01:42:09.433Z,83.54
2018-06-03T01:43:09.432Z,83.07
2018-06-03T01:44:09.423Z,83.07
2018-06-03T01:45:09.434Z,83.07
2018-06-03T01:46:09.436Z,82.97
2018-06-03T01:47:09.442Z,83.16
2018-06-03T01:48:09.460Z,82.87
2018-06-03T01:49:09.458Z,82.30
2018-06-03T01:50:09.466Z,83.26
2018-06-03T01:51:09.468Z,83.45
2018-06-03T01:52:09.480Z,83.51
2018-06-03T01:53:09.487Z,84.95
2018-06-03T01:54:09.491Z,84.03
2018-06-03T01:55:09.498Z,83.54
2018-06-03T01:56:09.505Z,82.40
2018-06-03T01:57:09.539Z,82.40
2018-06-03T01:58:09.518Z,82.68
2018-06-03T01:59:09.527Z,82.49
2018-06-03T02:00:09.541Z,82.43
2018-06-03T02:01:09.540Z,82.01
2018-06-03T02:02:09.555Z,82.10
2018-06-03T02:03:09.557Z,82.20
2018-06-03T02:04:09.558Z,82.68
2018-06-03T02:05:09.567Z,82.68
2018-06-03T02:06:09.579Z,82.97
2018-06-03T02:07:09.579Z,83.07
2018-06-03T02:08:09.587Z,83.54
2018-06-03T02:09:09.595Z,82.59
2018-06-03T02:10:09.609Z,82.78
2018-06-03T02:11:09.609Z,82.97
2018-06-03T02:12:09.614Z,82.30
2018-06-03T02:13:09.623Z,82.78
2018-06-03T02:14:09.637Z,84.03
2018-06-03T02:15:09.634Z,82.97
2018-06-03T02:16:09.646Z,83.54
2018-06-03T02:17:09.649Z,83.26
2018-06-03T02:18:09.656Z,83.16
2018-06-03T02:19:09.665Z,84.08
2018-06-03T02:20:09.669Z,83.93
2018-06-03T02:21:09.677Z,83.36
2018-06-03T02:22:09.682Z,83.36
2018-06-03T02:23:09.699Z,83.22
2018-06-03T02:24:09.695Z,84.27
2018-06-03T02:25:09.703Z,83.80
2018-06-03T02:26:09.709Z,84.03
2018-06-03T02:27:09.718Z,83.36
2018-06-03T02:28:09.722Z,82.68
2018-06-03T02:29:09.729Z,82.10
2018-06-03T02:30:09.742Z,82.40
2018-06-03T02:31:09.741Z,82.78
2018-06-03T02:32:09.753Z,82.20
2018-06-03T02:33:09.757Z,82.49
2018-06-03T02:34:09.763Z,82.35
2018-06-03T02:35:09.811Z,83.60
2018-06-03T02:36:09.778Z,82.87
2018-06-03T02:37:09.783Z,82.40
2018-06-03T02:38:09.790Z,82.54
2018-06-03T02:39:09.796Z,83.98
2018-06-03T02:40:09.802Z,83.89
2018-06-03T02:41:09.816Z,82.97
2018-06-03T02:42:09.819Z,83.22
2018-06-03T02:43:09.824Z,83.45
2018-06-03T02:44:09.832Z,83.41
2018-06-03T02:45:09.837Z,83.70
2018-06-03T02:46:09.843Z,82.93
2018-06-03T02:47:09.850Z,82.84
2018-06-03T02:48:09.876Z,83.41
2018-06-03T02:49:09.863Z,83.03
2018-06-03T02:50:09.869Z,82.10
2018-06-03T02:51:09.879Z,82.49
2018-06-03T02:52:09.883Z,82.64
2018-06-03T02:53:09.894Z,83.51
2018-06-03T02:54:09.894Z,82.93
2018-06-03T02:55:09.925Z,83.12
2018-06-03T02:56:09.914Z,83.22
2018-06-03T02:57:09.921Z,83.51
2018-06-03T02:58:09.926Z,83.51
2018-06-03T02:59:09.928Z,82.45
2018-06-03T03:00:09.937Z,83.70
2018-06-03T03:01:09.947Z,83.80
2018-06-03T03:02:09.949Z,83.98
2018-06-03T03:03:09.955Z,84.85
2018-06-03T03:04:09.961Z,84.37
2018-06-03T03:05:09.974Z,83.89
2018-06-03T03:06:09.977Z,83.70
2018-06-03T03:07:09.982Z,83.70
2018-06-03T03:08:09.988Z,84.08
2018-06-03T03:09:09.995Z,84.47
2018-06-03T03:10:10.001Z,84.37
2018-06-03T03:11:10.013Z,83.70
2018-06-03T03:12:10.017Z,83.51
2018-06-03T03:13:10.025Z,83.60
2018-06-03T03:14:10.027Z,83.12
2018-06-03T03:15:10.032Z,82.84
2018-06-03T03:16:10.066Z,82.78
2018-06-03T03:17:10.053Z,83.51
2018-06-03T03:18:10.055Z,83.41
2018-06-03T03:19:10.060Z,82.93
2018-06-03T03:20:10.068Z,83.12
2018-06-03T03:21:10.077Z,84.27
2018-06-03T03:22:10.080Z,84.47
2018-06-03T03:23:10.088Z,83.22
2018-06-03T03:24:10.094Z,83.54
2018-06-03T03:25:10.101Z,83.64
2018-06-03T03:26:10.105Z,83.07
2018-06-03T03:27:10.119Z,83.89
2018-06-03T03:28:10.123Z,84.27
2018-06-03T03:29:10.127Z,84.66
2018-06-03T03:30:10.131Z,83.60
2018-06-03T03:31:10.140Z,83.54
2018-06-03T03:32:10.144Z,84.47
2018-06-03T03:33:10.154Z,84.95
2018-06-03T03:34:10.159Z,84.37
2018-06-03T03:35:10.195Z,83.89
2018-06-03T03:36:10.174Z,84.47
2018-06-03T03:37:10.203Z,83.70
2018-06-03T03:38:10.185Z,83.80
2018-06-03T03:39:10.192Z,83.31
2018-06-03T03:40:10.197Z,83.54
2018-06-03T03:41:10.208Z,82.78
2018-06-03T03:42:10.212Z,82.49
2018-06-03T03:43:10.218Z,82.40
2018-06-03T03:44:10.225Z,82.10
2018-06-03T03:45:10.232Z,82.40
2018-06-03T03:46:10.244Z,83.80
2018-06-03T03:47:10.245Z,83.51
2018-06-03T03:48:10.250Z,84.18
2018-06-03T03:49:10.259Z,84.47
2018-06-03T03:50:10.263Z,84.27
2018-06-03T03:51:10.271Z,84.66
2018-06-03T03:52:10.281Z,84.75
2018-06-03T03:53:10.283Z,85.04
2018-06-03T03:54:10.291Z,84.18
2018-06-03T03:55:10.317Z,83.60
2018-06-03T03:56:10.307Z,82.78
2018-06-03T03:57:10.309Z,82.49
2018-06-03T03:58:10.320Z,82.78
2018-06-03T03:59:10.323Z,84.37
2018-06-03T04:00:10.335Z,84.37
2018-06-03T04:01:10.337Z,83.31
2018-06-03T04:02:10.342Z,84.66
2018-06-03T04:03:10.348Z,85.42
2018-06-03T04:04:10.359Z,84.95
2018-06-03T04:05:10.362Z,84.37
2018-06-03T04:06:10.372Z,84.66
2018-06-03T04:07:10.373Z,84.56
2018-06-03T04:08:10.381Z,83.51
2018-06-03T04:09:10.396Z,83.51
2018-06-03T04:10:10.397Z,83.70
2018-06-03T04:11:10.407Z,84.66
2018-06-03T04:12:10.419Z,84.85
2018-06-03T04:13:10.455Z,85.33
2018-06-03T04:14:10.421Z,84.47
2018-06-03T04:15:10.429Z,84.37
2018-06-03T04:16:10.434Z,84.47
2018-06-03T04:17:10.456Z,84.51
2018-06-03T04:18:10.447Z,83.26
2018-06-03T04:19:10.462Z,83.36
2018-06-03T04:20:10.461Z,83.26
2018-06-03T04:21:10.468Z,83.54
2018-06-03T04:22:10.472Z,83.45
2018-06-03T04:23:10.484Z,83.64
2018-06-03T04:24:10.487Z,83.26
2018-06-03T04:25:10.500Z,83.84
2018-06-03T04:26:10.499Z,83.26
2018-06-03T04:27:10.508Z,83.84
2018-06-03T04:28:10.515Z,83.36
2018-06-03T04:29:10.524Z,83.40
2018-06-03T04:30:10.527Z,83.49
2018-06-03T04:31:10.536Z,83.11
2018-06-03T04:32:10.547Z,82.53
2018-06-03T04:33:10.548Z,82.15
2018-06-03T04:34:10.553Z,81.86
2018-06-03T04:35:10.578Z,81.96
2018-06-03T04:36:10.573Z,82.63
2018-06-03T04:37:10.575Z,82.15
2018-06-03T04:38:10.586Z,81.86
2018-06-03T04:39:10.592Z,82.24
2018-06-03T04:40:10.596Z,82.97
2018-06-03T04:41:10.599Z,83.11
2018-06-03T04:42:10.612Z,82.87
2018-06-03T04:43:10.615Z,82.82
2018-06-03T04:44:10.621Z,82.43
2018-06-03T04:45:10.631Z,82.63
2018-06-03T04:46:10.644Z,83.20
2018-06-03T04:47:10.646Z,82.82
2018-06-03T04:48:10.652Z,82.92
2018-06-03T04:49:10.657Z,82.57
2018-06-03T04:50:10.669Z,83.59
2018-06-03T04:51:10.673Z,83.01
2018-06-03T04:52:10.675Z,82.92
2018-06-03T04:53:10.691Z,83.20
2018-06-03T04:54:10.698Z,83.49
2018-06-03T04:55:10.699Z,83.40
2018-06-03T04:56:10.704Z,83.11
2018-06-03T04:57:10.712Z,83.06
2018-06-03T04:58:10.721Z,82.38
2018-06-03T04:59:10.728Z,81.32
2018-06-03T05:00:10.736Z,81.71
2018-06-03T05:01:10.747Z,81.90
2018-06-03T05:02:10.748Z,81.81
2018-06-03T05:03:10.757Z,81.52
2018-06-03T05:04:10.761Z,81.52
2018-06-03T05:05:10.768Z,82.48
2018-06-03T05:06:10.788Z,82.19
2018-06-03T05:07:10.791Z,81.42
2018-06-03T05:08:10.788Z,81.42
2018-06-03T05:09:10.801Z,81.27
2018-06-03T05:10:10.802Z,82.09
2018-06-03T05:11:10.810Z,81.90
2018-06-03T05:12:10.818Z,81.81
2018-06-03T05:13:10.828Z,81.81
2018-06-03T05:14:10.831Z,82.09
2018-06-03T05:15:10.840Z,82.09
2018-06-03T05:16:10.849Z,81.94
2018-06-03T05:17:10.854Z,82.19
2018-06-03T05:18:10.863Z,82.14
2018-06-03T05:19:10.875Z,81.99
2018-06-03T05:20:10.877Z,82.52
2018-06-03T05:21:10.884Z,83.09
2018-06-03T05:22:10.887Z,83.29
2018-06-03T05:23:10.900Z,82.61
2018-06-03T05:24:10.906Z,81.75
2018-06-03T05:25:10.918Z,81.27
2018-06-03T05:26:10.920Z,81.75
2018-06-03T05:27:10.928Z,81.07
2018-06-03T05:28:10.934Z,81.07
2018-06-03T05:29:10.942Z,81.46
2018-06-03T05:30:10.955Z,83.19
2018-06-03T05:31:10.956Z,83.00
2018-06-03T05:32:10.973Z,82.23
2018-06-03T05:33:10.974Z,82.61
2018-06-03T05:34:10.977Z,81.84
2018-06-03T05:35:10.984Z,81.84
2018-06-03T05:36:10.993Z,82.04
2018-06-03T05:37:11.013Z,82.14
2018-06-03T05:38:11.015Z,81.17
2018-06-03T05:39:11.015Z,82.04
2018-06-03T05:40:11.023Z,81.27
2018-06-03T05:41:11.033Z,81.75
2018-06-03T05:42:11.047Z,81.50
2018-06-03T05:43:11.050Z,81.94
2018-06-03T05:44:11.053Z,81.27
2018-06-03T05:45:11.060Z,81.21
2018-06-03T05:46:11.067Z,81.50
2018-06-03T05:47:11.105Z,81.07
2018-06-03T05:48:11.091Z,81.21
2018-06-03T05:49:11.090Z,81.40
2018-06-03T05:50:11.100Z,81.40
2018-06-03T05:51:11.105Z,80.63
2018-06-03T05:52:11.117Z,80.63
2018-06-03T05:53:11.119Z,81.02
2018-06-03T05:54:11.143Z,81.12
2018-06-03T05:55:11.136Z,81.02
2018-06-03T05:56:11.145Z,80.63
2018-06-03T05:57:11.149Z,79.48
2018-06-03T05:58:11.169Z,79.48
2018-06-03T05:59:11.164Z,79.19
2018-06-03T06:00:11.175Z,79.48
2018-06-03T06:01:11.182Z,80.15
2018-06-03T06:02:11.188Z,78.61
2018-06-03T06:03:11.194Z,79.38
2018-06-03T06:04:11.205Z,78.65
2018-06-03T06:05:11.216Z,79.77
2018-06-03T06:06:11.230Z,79.00
2018-06-03T06:07:11.228Z,79.28
2018-06-03T06:08:11.236Z,79.23
2018-06-03T06:09:11.248Z,79.90
2018-06-03T06:10:11.251Z,79.71
2018-06-03T06:11:11.258Z,79.90
2018-06-03T06:12:11.270Z,79.81
2018-06-03T06:13:11.278Z,79.23
2018-06-03T06:14:11.287Z,80.19
2018-06-03T06:15:11.289Z,79.81
2018-06-03T06:16:11.299Z,79.33
2018-06-03T06:17:11.315Z,79.61
2018-06-03T06:18:11.316Z,79.23
2018-06-03T06:19:11.329Z,80.38
2018-06-03T06:20:11.382Z,78.46
2018-06-03T06:21:11.337Z,78.94
2018-06-03T06:22:11.352Z,78.94
2018-06-03T06:23:11.358Z,78.94
2018-06-03T06:24:11.361Z,78.59
2018-06-03T06:25:11.371Z,78.79
2018-06-03T06:26:11.383Z,78.40
2018-06-03T06:27:11.389Z,78.98
2018-06-03T06:28:11.396Z,80.14
2018-06-03T06:29:11.405Z,78.11
2018-06-03T06:30:11.407Z,78.50
2018-06-03T06:31:11.419Z,78.59
2018-06-03T06:32:11.428Z,78.02
2018-06-03T06:33:11.433Z,78.88
2018-06-03T06:34:11.444Z,79.17
2018-06-03T06:35:11.452Z,78.44
2018-06-03T06:36:11.465Z,78.15
2018-06-03T06:37:11.468Z,77.86
2018-06-03T06:38:11.476Z,78.63
2018-06-03T06:39:11.484Z,77.76
2018-06-03T06:40:11.492Z,77.48
2018-06-03T06:41:11.501Z,77.58
2018-06-03T06:42:11.514Z,77.09
2018-06-03T06:43:11.521Z,77.19
2018-06-03T06:44:11.526Z,77.00
2018-06-03T06:45:11.535Z,76.23
2018-06-03T06:46:11.565Z,76.03
2018-06-03T06:47:11.553Z,75.97
2018-06-03T06:48:11.564Z,76.55
2018-06-03T06:49:11.571Z,75.93
2018-06-03T06:50:11.580Z,74.88
2018-06-03T06:51:11.595Z,75.01
2018-06-03T06:52:11.597Z,75.88
2018-06-03T06:53:11.637Z,76.26
2018-06-03T06:54:11.616Z,75.68
2018-06-03T06:55:11.624Z,75.59
2018-06-03T06:56:11.633Z,76.17
2018-06-03T06:57:11.647Z,75.49
2018-06-03T06:58:11.651Z,75.20
2018-06-03T06:59:11.660Z,75.20
2018-06-03T07:00:11.682Z,75.01
2018-06-03T07:01:11.679Z,75.10
2018-06-03T07:02:11.688Z,74.72
2018-06-03T07:03:11.704Z,75.10
2018-06-03T07:04:11.731Z,74.72
2018-06-03T07:05:11.716Z,75.68
2018-06-03T07:06:11.722Z,75.78
2018-06-03T07:07:11.735Z,78.38
2018-06-03T07:08:11.750Z,78.00
2018-06-03T07:09:11.756Z,77.61
2018-06-03T07:10:11.760Z,77.42
2018-06-03T07:11:11.768Z,76.36
2018-06-03T07:12:11.779Z,76.84
2018-06-03T07:13:11.846Z,78.00
2018-06-03T07:14:11.800Z,78.19
2018-06-03T07:15:11.807Z,77.81
2018-06-03T07:16:11.814Z,77.33
2018-06-03T07:17:11.828Z,77.51
2018-06-03T07:18:11.831Z,77.13
2018-06-03T07:19:11.842Z,77.51
2018-06-03T07:20:11.851Z,78.00
2018-06-03T07:21:11.862Z,78.00
2018-06-03T07:22:11.868Z,78.19
2018-06-03T07:23:11.916Z,77.23
2018-06-03T07:24:11.893Z,77.46
2018-06-03T07:25:11.897Z,76.45
2018-06-03T07:26:11.911Z,76.36
2018-06-03T07:27:11.914Z,76.45
2018-06-03T07:28:11.927Z,76.75
2018-06-03T07:29:11.936Z,77.51
2018-06-03T07:30:11.941Z,77.90
2018-06-03T07:31:11.953Z,77.51
2018-06-03T07:32:11.970Z,76.45
2018-06-03T07:33:11.974Z,75.40
2018-06-03T07:34:11.979Z,75.10
2018-06-03T07:35:11.987Z,76.17
2018-06-03T07:36:11.996Z,75.59
2018-06-03T07:37:12.005Z,75.62
2018-06-03T07:38:12.045Z,77.03
2018-06-03T07:39:12.025Z,76.84
2018-06-03T07:40:12.048Z,76.10
2018-06-03T07:41:12.048Z,75.97
2018-06-03T07:42:12.053Z,75.59
2018-06-03T07:43:12.062Z,75.30
2018-06-03T07:44:12.072Z,74.91
2018-06-03T07:45:12.085Z,75.20
2018-06-03T07:46:12.089Z,76.10
2018-06-03T07:47:12.100Z,75.97
2018-06-03T07:48:12.114Z,75.62
2018-06-03T07:49:12.117Z,76.68
2018-06-03T07:50:12.126Z,77.65
2018-06-03T07:51:12.136Z,76.88
2018-06-03T07:52:12.146Z,76.78
2018-06-03T07:53:12.159Z,76.68
2018-06-03T07:54:12.162Z,76.10
2018-06-03T07:55:12.177Z,75.82
2018-06-03T07:56:12.180Z,76.20
2018-06-03T07:57:12.195Z,76.20
2018-06-03T07:58:12.197Z,75.88
2018-06-03T07:59:12.204Z,75.43
2018-06-03T08:00:12.216Z,74.85
2018-06-03T08:01:12.219Z,76.10
2018-06-03T08:02:12.248Z,75.82
2018-06-03T08:03:12.241Z,75.53
2018-06-03T08:04:12.249Z,75.82
2018-06-03T08:05:12.259Z,75.43
2018-06-03T08:06:12.274Z,75.34
2018-06-03T08:07:12.277Z,75.92
2018-06-03T08:08:12.295Z,75.92
2018-06-03T08:09:12.306Z,75.82
2018-06-03T08:10:12.306Z,76.40
2018-06-03T08:11:12.318Z,76.78
2018-06-03T08:12:12.327Z,76.40
2018-06-03T08:13:12.335Z,76.68
2018-06-03T08:14:12.342Z,75.62
2018-06-03T08:15:12.352Z,75.67
2018-06-03T08:16:12.368Z,74.41
2018-06-03T08:17:12.410Z,73.44
2018-06-03T08:18:12.380Z,74.51
2018-06-03T08:19:12.388Z,74.79
2018-06-03T08:20:12.396Z,74.02
2018-06-03T08:21:12.405Z,73.35
2018-06-03T08:22:12.415Z,72.77
2018-06-03T08:23:12.425Z,72.86
2018-06-03T08:24:12.432Z,74.60
2018-06-03T08:25:12.451Z,75.37
2018-06-03T08:26:12.456Z,74.41
2018-06-03T08:27:12.459Z,73.73
2018-06-03T08:28:12.470Z,73.54
2018-06-03T08:29:12.486Z,73.96
2018-06-03T08:30:12.490Z,74.06
2018-06-03T08:31:12.496Z,74.83
2018-06-03T08:32:12.507Z,72.90
2018-06-03T08:33:12.518Z,73.28
2018-06-03T08:34:12.528Z,72.42
2018-06-03T08:35:12.539Z,72.03
2018-06-03T08:36:12.547Z,72.03
2018-06-03T08:37:12.560Z,72.13
2018-06-03T08:38:12.567Z,72.13
2018-06-03T08:39:12.649Z,71.30
2018-06-03T08:40:12.588Z,72.03
2018-06-03T08:41:12.602Z,73.09
2018-06-03T08:42:12.600Z,72.03
2018-06-03T08:43:12.616Z,71.68
2018-06-03T08:44:12.623Z,72.74
2018-06-03T08:45:12.633Z,72.16
2018-06-03T08:46:12.657Z,70.81
2018-06-03T08:47:12.653Z,70.72
2018-06-03T08:48:12.661Z,70.62
2018-06-03T08:49:12.709Z,70.52
2018-06-03T08:50:12.679Z,69.98
2018-06-03T08:51:12.691Z,70.52
2018-06-03T08:52:12.726Z,71.00
2018-06-03T08:53:12.714Z,71.23
2018-06-03T08:54:12.721Z,71.00
2018-06-03T08:55:12.734Z,70.62
2018-06-03T08:56:12.745Z,70.07
2018-06-03T08:57:12.751Z,70.07
2018-06-03T08:58:12.768Z,70.36
2018-06-03T08:59:12.773Z,69.10
2018-06-03T09:00:12.787Z,69.59
2018-06-03T09:01:12.792Z,69.78
2018-06-03T09:02:12.802Z,69.30
2018-06-03T09:03:12.816Z,69.88
2018-06-03T09:04:12.829Z,68.04
2018-06-03T09:05:12.837Z,66.98
2018-06-03T09:06:12.852Z,68.91
2018-06-03T09:07:12.859Z,70.17
2018-06-03T09:08:12.874Z,68.66
2018-06-03T09:09:12.882Z,67.98
2018-06-03T09:10:12.884Z,68.72
2018-06-03T09:11:12.907Z,69.59
2018-06-03T09:12:12.911Z,69.88
2018-06-03T09:13:12.918Z,69.40
2018-06-03T09:14:12.927Z,69.72
2018-06-03T09:15:12.945Z,69.10
2018-06-03T09:16:12.991Z,69.14
2018-06-03T09:17:12.959Z,67.88
2018-06-03T09:18:12.969Z,68.37
2018-06-03T09:19:12.981Z,68.56
2018-06-03T09:20:12.992Z,66.43
2018-06-03T09:21:13.006Z,66.14
2018-06-03T09:22:13.013Z,67.11
2018-06-03T09:23:13.024Z,65.85
2018-06-03T09:24:13.039Z,65.75
2018-06-03T09:25:13.088Z,65.75
2018-06-03T09:26:13.055Z,65.30
2018-06-03T09:27:13.089Z,65.17
2018-06-03T09:28:13.079Z,66.37
2018-06-03T09:29:13.088Z,66.08
2018-06-03T09:30:13.100Z,65.98
2018-06-03T09:31:13.110Z,65.98
2018-06-03T09:32:13.120Z,65.98
2018-06-03T09:33:13.138Z,65.30
2018-06-03T09:34:13.143Z,67.53
2018-06-03T09:35:13.163Z,67.56
2018-06-03T09:36:13.169Z,67.56
2018-06-03T09:37:13.180Z,64.85
2018-06-03T09:38:13.191Z,63.56
2018-06-03T09:39:13.201Z,63.46
2018-06-03T09:40:13.208Z,63.11
2018-06-03T09:41:13.239Z,62.63
2018-06-03T09:42:13.231Z,63.31
2018-06-03T09:43:13.247Z,63.79
2018-06-03T09:44:13.259Z,62.72
2018-06-03T09:45:13.270Z,62.82
2018-06-03T09:46:13.273Z,62.82
2018-06-03T09:47:13.294Z,61.66
2018-06-03T09:48:13.308Z,61.76
2018-06-03T09:49:13.307Z,61.95
2018-06-03T09:50:13.325Z,63.34
2018-06-03T09:51:13.335Z,63.40
2018-06-03T09:52:13.345Z,64.07
2018-06-03T09:53:13.497Z,63.69
2018-06-03T09:54:13.375Z,62.66
2018-06-03T09:55:13.377Z,64.79
2018-06-03T09:56:13.392Z,64.50
2018-06-03T09:57:13.403Z,63.24
2018-06-03T09:58:13.413Z,63.62
2018-06-03T09:59:13.430Z,63.34
2018-06-03T10:00:13.435Z,62.66
2018-06-03T10:01:13.452Z,63.72
2018-06-03T10:02:13.461Z,62.40
2018-06-03T10:03:13.472Z,61.33
2018-06-03T10:04:13.481Z,59.78
2018-06-03T10:05:13.489Z,60.04
2018-06-03T10:06:13.505Z,60.33
2018-06-03T10:07:13.514Z,61.62
2018-06-03T10:08:13.528Z,59.88
2018-06-03T10:09:13.547Z,59.56
2018-06-03T10:10:13.576Z,60.24
2018-06-03T10:11:13.567Z,61.30
2018-06-03T10:12:13.580Z,61.59
2018-06-03T10:13:13.589Z,58.98
2018-06-03T10:14:13.604Z,57.65
2018-06-03T10:15:13.617Z,59.49
2018-06-03T10:16:13.665Z,60.52
2018-06-03T10:17:13.634Z,60.17
2018-06-03T10:18:13.648Z,61.72
2018-06-03T10:19:13.658Z,60.36
2018-06-03T10:20:13.677Z,59.69
2018-06-03T10:21:13.680Z,58.81
2018-06-03T10:22:13.699Z,59.33
2018-06-03T10:23:13.716Z,58.81
2018-06-03T10:24:13.719Z,61.94
2018-06-03T10:25:13.727Z,60.00
2018-06-03T10:26:13.739Z,60.00
2018-06-03T10:27:13.751Z,60.39
2018-06-03T10:28:13.764Z,58.26
2018-06-03T10:29:13.777Z,58.06
2018-06-03T10:30:13.788Z,57.00
2018-06-03T10:31:13.801Z,57.48
2018-06-03T10:32:13.813Z,58.26
2018-06-03T10:33:13.828Z,57.29
2018-06-03T10:34:13.836Z,57.09
2018-06-03T10:35:13.848Z,56.13
2018-06-03T10:36:13.865Z,55.64
2018-06-03T10:37:13.879Z,56.71
2018-06-03T10:38:13.893Z,58.48
2018-06-03T10:39:13.897Z,56.74
2018-06-03T10:40:13.912Z,54.99
2018-06-03T10:41:13.922Z,56.25
2018-06-03T10:42:13.933Z,56.25
2018-06-03T10:43:13.947Z,56.54
2018-06-03T10:44:13.965Z,56.64
2018-06-03T10:45:13.977Z,56.18
2018-06-03T10:46:13.981Z,56.93
2018-06-03T10:47:13.994Z,56.64
2018-06-03T10:48:14.016Z,55.67
2018-06-03T10:49:14.026Z,55.47
2018-06-03T10:50:14.031Z,56.64
2018-06-03T10:51:14.048Z,55.28
2018-06-03T10:52:14.058Z,55.67
2018-06-03T10:53:14.073Z,56.83
2018-06-03T10:54:14.120Z,55.67
2018-06-03T10:55:14.096Z,55.87
2018-06-03T10:56:14.116Z,57.34
2018-06-03T10:57:14.156Z,57.51
2018-06-03T10:58:14.134Z,55.89
2018-06-03T10:59:14.152Z,55.99
2018-06-03T11:00:14.160Z,56.57
2018-06-03T11:01:14.172Z,56.57
2018-06-03T11:02:14.183Z,55.60
2018-06-03T11:03:14.199Z,56.50
2018-06-03T11:04:14.213Z,55.43
2018-06-03T11:05:14.223Z,54.85
2018-06-03T11:06:14.237Z,54.72
2018-06-03T11:07:14.253Z,53.97
2018-06-03T11:08:14.262Z,52.42
2018-06-03T11:09:14.281Z,53.85
2018-06-03T11:10:14.288Z,54.34
2018-06-03T11:11:14.299Z,54.56
2018-06-03T11:12:14.313Z,53.69
2018-06-03T11:13:14.328Z,54.46
2018-06-03T11:14:14.340Z,54.46
2018-06-03T11:15:14.358Z,55.43
2018-06-03T11:16:14.365Z,55.53
2018-06-03T11:17:14.378Z,53.78
2018-06-03T11:18:14.389Z,54.85
2018-06-03T11:19:14.406Z,54.27
2018-06-03T11:20:14.420Z,54.36
2018-06-03T11:21:14.433Z,53.97
2018-06-03T11:22:14.450Z,53.97
2018-06-03T11:23:14.454Z,53.97
2018-06-03T11:24:14.469Z,53.59
2018-06-03T11:25:14.483Z,54.46
2018-06-03T11:26:14.494Z,54.36
2018-06-03T11:27:14.509Z,53.59
2018-06-03T11:28:14.522Z,52.42
2018-06-03T11:29:14.536Z,52.64
2018-06-03T11:30:14.549Z,52.55
2018-06-03T11:31:14.567Z,53.49
2018-06-03T11:32:14.574Z,54.20
2018-06-03T11:33:14.589Z,54.58
2018-06-03T11:34:14.603Z,57.11
2018-06-03T11:35:14.616Z,54.46
2018-06-03T11:36:14.627Z,54.56
2018-06-03T11:37:14.641Z,54.29
2018-06-03T11:38:14.655Z,54.58
2018-06-03T11:39:14.673Z,54.29
2018-06-03T11:40:14.685Z,54.39
2018-06-03T11:41:14.692Z,54.00
2018-06-03T11:42:14.709Z,54.88
2018-06-03T11:43:14.720Z,54.49
2018-06-03T11:44:14.745Z,51.45
2018-06-03T11:45:14.754Z,52.50
2018-06-03T11:46:14.764Z,53.00
2018-06-03T11:47:14.776Z,53.69
2018-06-03T11:48:14.788Z,54.27
2018-06-03T11:49:14.814Z,53.78
2018-06-03T11:50:14.816Z,52.13
2018-06-03T11:51:14.830Z,51.93
2018-06-03T11:52:14.840Z,50.77
2018-06-03T11:53:14.856Z,51.23
2018-06-03T11:54:14.872Z,52.20
2018-06-03T11:55:14.883Z,52.91
2018-06-03T11:56:14.896Z,52.62
2018-06-03T11:57:14.908Z,51.43
2018-06-03T11:58:14.930Z,52.11
2018-06-03T11:59:14.933Z,52.01
2018-06-03T12:00:14.947Z,52.03
2018-06-03T12:01:14.963Z,51.55
2018-06-03T12:02:14.976Z,50.48
2018-06-03T12:03:14.989Z,51.55
2018-06-03T12:04:15.002Z,51.45
2018-06-03T12:05:15.017Z,51.45
2018-06-03T12:06:15.026Z,51.67
2018-06-03T12:07:15.039Z,52.64
2018-06-03T12:08:15.106Z,51.48
2018-06-03T12:09:15.083Z,50.70
2018-06-03T12:10:15.082Z,51.77
2018-06-03T12:11:15.093Z,52.74
2018-06-03T12:12:15.107Z,51.38
2018-06-03T12:13:15.121Z,51.40
2018-06-03T12:14:15.144Z,50.43
2018-06-03T12:15:15.150Z,50.04
2018-06-03T12:16:15.159Z,50.34
2018-06-03T12:17:15.172Z,50.53
2018-06-03T12:18:15.186Z,51.31
2018-06-03T12:19:15.202Z,48.97
2018-06-03T12:20:15.215Z,48.20
2018-06-03T12:21:15.226Z,48.20
2018-06-03T12:22:15.242Z,49.56
2018-06-03T12:23:15.256Z,49.76
2018-06-03T12:24:15.267Z,49.92
2018-06-03T12:25:15.282Z,48.75
2018-06-03T12:26:15.293Z,49.56
2018-06-03T12:27:15.310Z,51.57
2018-06-03T12:28:15.323Z,51.57
2018-06-03T12:29:15.334Z,51.28
2018-06-03T12:30:15.351Z,50.21
2018-06-03T12:31:15.361Z,49.34
2018-06-03T12:32:15.373Z,47.98
2018-06-03T12:33:15.388Z,49.05
2018-06-03T12:34:15.402Z,48.85
2018-06-03T12:35:15.416Z,49.73
2018-06-03T12:36:15.436Z,51.28
2018-06-03T12:37:15.442Z,52.06
2018-06-03T12:38:15.454Z,49.44
2018-06-03T12:39:15.493Z,50.89
2018-06-03T12:40:15.492Z,50.51
2018-06-03T12:41:15.516Z,50.34
2018-06-03T12:42:15.508Z,50.24
2018-06-03T12:43:15.527Z,50.82
2018-06-03T12:44:15.542Z,51.01
2018-06-03T12:45:15.553Z,51.21
2018-06-03T12:46:15.562Z,50.82
2018-06-03T12:47:15.574Z,49.58
2018-06-03T12:48:15.592Z,50.53
2018-06-03T12:49:15.609Z,49.56
2018-06-03T12:50:15.620Z,48.32
2018-06-03T12:51:15.631Z,48.22
2018-06-03T12:52:15.646Z,49.95